Time;durP1;ratioP1;P1;durP2;ratioP2;P2;SDS_P1;SDS_P2;PMS_P1;PMS_P2;Temp;Humidity;BMP_temperature;BMP_pressure;BME280_temperature;BME280_humidity;BME280_pressure;Samples;Min_cycle;Max_cycle;Signal;HPM_P1;HPM_P2
2021/11/25 00:01:54;;;;;;;75.85;34.90;;;;;;;;;;5092178;28;20047;-62
2021/11/25 00:04:20;;;;;;;83.75;35.30;;;;;;;;;;5090510;28;20098;-62
2021/11/25 00:06:47;;;;;;;84.72;34.28;;;;;;;;;;5097868;28;20081;-63
2021/11/25 00:09:13;;;;;;;80.03;36.28;;;;;;;;;;5092897;28;20131;-63
2021/11/25 00:11:39;;;;;;;91.20;36.95;;;;;;;;;;5100055;28;20055;-62
2021/11/25 00:14:05;;;;;;;89.35;38.28;;;;;;;;;;5093872;28;20084;-62
2021/11/25 00:16:32;;;;;;;86.63;39.65;;;;;;;;;;5090173;28;20039;-63
2021/11/25 00:18:58;;;;;;;88.03;38.90;;;;;;;;;;5094473;28;20090;-62
2021/11/25 00:21:24;;;;;;;92.28;40.60;;;;;;;;;;5098234;28;20056;-62
2021/11/25 00:23:50;;;;;;;93.60;39.58;;;;;;;;;;5097569;28;20074;-62
2021/11/25 00:26:17;;;;;;;92.57;40.10;;;;;;;;;;5092950;28;20195;-63
2021/11/25 00:28:43;;;;;;;97.00;39.55;;;;;;;;;;5074126;28;20483;-62
2021/11/25 00:31:10;;;;;;;92.90;40.97;;;;;;;;;;5090177;28;20043;-62
2021/11/25 00:33:36;;;;;;;98.55;42.50;;;;;;;;;;5093754;28;20040;-62
2021/11/25 00:36:03;;;;;;;98.10;40.45;;;;;;;;;;5089677;28;20091;-62
2021/11/25 00:38:29;;;;;;;107.40;43.30;;;;;;;;;;5090873;28;20043;-62
2021/11/25 00:40:55;;;;;;;111.22;43.28;;;;;;;;;;5091797;28;20377;-63
2021/11/25 00:43:21;;;;;;;102.97;41.08;;;;;;;;;;5092723;28;20114;-63
2021/11/25 00:45:48;;;;;;;114.82;44.63;;;;;;;;;;5094411;28;20044;-62
2021/11/25 00:48:15;;;;;;;114.57;45.90;;;;;;;;;;5072233;28;20036;-62
2021/11/25 00:50:41;;;;;;;118.50;45.00;;;;;;;;;;5084829;28;20119;-62
2021/11/25 00:53:09;;;;;;;119.10;45.45;;;;;;;;;;5089832;28;20047;-62
2021/11/25 00:55:35;;;;;;;124.13;47.15;;;;;;;;;;5093096;28;20052;-62
2021/11/25 00:58:01;;;;;;;122.97;46.35;;;;;;;;;;5091975;28;20123;-62
2021/11/25 01:00:27;;;;;;;127.35;46.58;;;;;;;;;;5088739;28;20161;-62
2021/11/25 01:02:54;;;;;;;128.90;45.30;;;;;;;;;;5092071;28;20046;-62
2021/11/25 01:05:20;;;;;;;120.93;44.90;;;;;;;;;;5092918;28;20051;-62
2021/11/25 01:07:47;;;;;;;129.02;47.88;;;;;;;;;;5088632;28;20097;-63
2021/11/25 01:10:14;;;;;;;119.25;45.80;;;;;;;;;;5090194;28;20449;-62
2021/11/25 01:12:41;;;;;;;126.97;45.65;;;;;;;;;;5072951;28;20467;-62
2021/11/25 01:15:08;;;;;;;124.85;47.03;;;;;;;;;;5072406;28;20035;-62
2021/11/25 01:17:36;;;;;;;130.10;47.17;;;;;;;;;;5087371;28;20048;-62
2021/11/25 01:20:03;;;;;;;125.03;46.70;;;;;;;;;;5088517;28;20062;-62
2021/11/25 01:22:29;;;;;;;119.82;44.25;;;;;;;;;;5068516;28;20128;-62
2021/11/25 01:24:55;;;;;;;136.35;49.17;;;;;;;;;;5086214;28;20075;-62
2021/11/25 01:27:22;;;;;;;144.25;49.55;;;;;;;;;;5086320;28;20036;-62
2021/11/25 01:29:48;;;;;;;133.43;50.03;;;;;;;;;;5086947;28;20048;-62
2021/11/25 01:32:14;;;;;;;137.88;49.15;;;;;;;;;;5086761;28;20056;-63
2021/11/25 01:34:40;;;;;;;134.27;48.35;;;;;;;;;;5063203;28;20458;-63
2021/11/25 01:37:07;;;;;;;137.43;48.15;;;;;;;;;;5080235;28;20337;-62
2021/11/25 01:39:33;;;;;;;150.73;50.25;;;;;;;;;;5092604;28;20479;-62
2021/11/25 01:41:59;;;;;;;151.85;50.20;;;;;;;;;;5095876;28;20055;-62
2021/11/25 01:44:26;;;;;;;149.35;51.85;;;;;;;;;;5085375;28;20084;-62
2021/11/25 01:46:52;;;;;;;154.15;52.22;;;;;;;;;;5090539;28;20044;-62
2021/11/25 01:49:18;;;;;;;163.00;53.45;;;;;;;;;;5092811;28;20044;-62
2021/11/25 01:51:44;;;;;;;157.25;51.10;;;;;;;;;;5075863;28;20154;-62
2021/11/25 01:54:10;;;;;;;147.38;50.90;;;;;;;;;;5093708;28;20078;-62
2021/11/25 01:56:36;;;;;;;161.93;52.15;;;;;;;;;;5088328;28;20040;-62
2021/11/25 01:59:03;;;;;;;154.27;52.30;;;;;;;;;;5089537;28;20043;-62
2021/11/25 02:01:34;;;;;;;159.68;52.85;;;;;;;;;;5095919;28;20044;-62
2021/11/25 02:04:00;;;;;;;151.00;50.28;;;;;;;;;;5073001;28;20054;-63
2021/11/25 02:06:27;;;;;;;149.30;51.53;;;;;;;;;;5088402;28;20055;-62
2021/11/25 02:08:53;;;;;;;166.70;53.95;;;;;;;;;;5103205;27;20062;-62
2021/11/25 02:11:19;;;;;;;154.20;52.63;;;;;;;;;;5113777;27;20039;-62
2021/11/25 02:13:45;;;;;;;152.52;50.92;;;;;;;;;;5106043;27;20052;-62
2021/11/25 02:16:11;;;;;;;158.65;53.20;;;;;;;;;;5108665;27;20425;-63
2021/11/25 02:18:38;;;;;;;155.43;53.50;;;;;;;;;;5091820;27;20543;-62
2021/11/25 02:21:04;;;;;;;147.25;53.22;;;;;;;;;;5115295;27;20048;-62
2021/11/25 02:23:30;;;;;;;157.45;50.30;;;;;;;;;;5110586;27;20447;-62
2021/11/25 02:25:57;;;;;;;153.02;50.53;;;;;;;;;;5108957;27;20054;-62
2021/11/25 02:28:27;;;;;;;165.02;53.85;;;;;;;;;;5090327;28;20044;-62
2021/11/25 02:30:53;;;;;;;157.32;53.40;;;;;;;;;;5119622;27;20527;-62
2021/11/25 02:33:19;;;;;;;154.38;51.08;;;;;;;;;;5111484;27;20044;-62
2021/11/25 02:35:46;;;;;;;159.60;53.10;;;;;;;;;;5106077;27;20075;-63
2021/11/25 02:38:13;;;;;;;161.85;53.63;;;;;;;;;;5105220;27;20035;-62
2021/11/25 02:40:41;;;;;;;151.60;51.88;;;;;;;;;;5109005;27;20075;-62
2021/11/25 02:43:10;;;;;;;163.25;54.80;;;;;;;;;;5096242;28;20047;-62
2021/11/25 02:45:45;;;;;;;163.18;54.72;;;;;;;;;;5117923;27;20051;-62
2021/11/25 02:48:12;;;;;;;157.27;55.13;;;;;;;;;;5110102;27;20125;-62
2021/11/25 02:50:39;;;;;;;151.57;55.30;;;;;;;;;;5111493;27;20405;-62
2021/11/25 02:53:06;;;;;;;146.68;54.92;;;;;;;;;;5115179;27;20043;-62
2021/11/25 02:55:32;;;;;;;128.05;52.80;;;;;;;;;;5110133;27;20035;-62
2021/11/25 02:57:58;;;;;;;135.40;51.35;;;;;;;;;;5116382;27;20043;-62
2021/11/25 03:00:24;;;;;;;139.38;53.92;;;;;;;;;;5121078;27;20051;-62
2021/11/25 03:02:57;;;;;;;120.15;48.13;;;;;;;;;;5117600;27;20112;-62
2021/11/25 03:05:24;;;;;;;128.82;50.80;;;;;;;;;;5120857;27;20039;-62
2021/11/25 03:07:50;;;;;;;126.15;50.50;;;;;;;;;;5120910;27;20450;-62
2021/11/25 03:10:17;;;;;;;129.85;51.20;;;;;;;;;;5094517;27;20061;-62
2021/11/25 03:12:43;;;;;;;124.18;51.03;;;;;;;;;;5109367;27;20073;-62
2021/11/25 03:15:09;;;;;;;135.48;51.05;;;;;;;;;;5116570;27;20081;-62
2021/11/25 03:17:38;;;;;;;126.30;51.13;;;;;;;;;;5113610;27;20051;-62
2021/11/25 03:20:04;;;;;;;126.78;51.53;;;;;;;;;;5115752;27;20659;-62
2021/11/25 03:22:30;;;;;;;125.95;49.83;;;;;;;;;;5118141;27;20047;-62
2021/11/25 03:24:57;;;;;;;115.03;49.30;;;;;;;;;;5119663;27;20031;-62
2021/11/25 03:27:23;;;;;;;124.32;51.30;;;;;;;;;;5121022;27;20076;-62
2021/11/25 03:29:49;;;;;;;120.75;50.10;;;;;;;;;;5118038;27;20046;-62
2021/11/25 03:32:15;;;;;;;123.40;52.45;;;;;;;;;;5111214;27;20042;-61
2021/11/25 03:34:41;;;;;;;125.20;52.80;;;;;;;;;;5109891;27;20506;-62
2021/11/25 03:37:08;;;;;;;127.47;52.63;;;;;;;;;;5116820;27;20039;-62
2021/11/25 03:39:34;;;;;;;124.95;53.53;;;;;;;;;;5115697;27;20368;-62
2021/11/25 03:42:00;;;;;;;127.22;54.35;;;;;;;;;;5115154;27;20158;-62
2021/11/25 03:44:26;;;;;;;119.47;55.88;;;;;;;;;;5119066;27;20035;-62
2021/11/25 03:46:53;;;;;;;132.18;53.53;;;;;;;;;;5121356;27;20445;-63
2021/11/25 03:49:20;;;;;;;121.82;55.30;;;;;;;;;;5093850;27;20048;-62
2021/11/25 03:51:46;;;;;;;126.20;55.15;;;;;;;;;;5110991;27;20061;-62
2021/11/25 03:54:12;;;;;;;135.63;57.55;;;;;;;;;;5105065;27;20044;-63
2021/11/25 03:56:38;;;;;;;135.73;58.97;;;;;;;;;;5090488;27;20054;-63
2021/11/25 03:59:04;;;;;;;138.52;55.80;;;;;;;;;;5105715;27;20107;-63
2021/11/25 04:01:30;;;;;;;133.40;58.83;;;;;;;;;;5107170;27;20036;-62
2021/11/25 04:03:57;;;;;;;132.57;57.92;;;;;;;;;;5105784;27;20036;-63
2021/11/25 04:06:23;;;;;;;142.57;60.78;;;;;;;;;;5110257;27;20067;-62
2021/11/25 04:08:49;;;;;;;131.68;57.20;;;;;;;;;;5108095;27;20044;-62
2021/11/25 04:11:15;;;;;;;137.95;59.03;;;;;;;;;;5118799;27;20117;-62
2021/11/25 04:13:41;;;;;;;142.85;58.35;;;;;;;;;;5104803;27;20077;-63
2021/11/25 04:16:07;;;;;;;136.80;57.75;;;;;;;;;;5084596;28;20046;-62
2021/11/25 04:18:34;;;;;;;150.98;62.20;;;;;;;;;;5102159;27;20049;-62
2021/11/25 04:21:00;;;;;;;149.98;59.30;;;;;;;;;;5112526;27;20047;-62
2021/11/25 04:23:26;;;;;;;152.65;61.35;;;;;;;;;;5092764;28;20035;-62
2021/11/25 04:25:52;;;;;;;151.32;60.17;;;;;;;;;;5096597;27;20050;-63
2021/11/25 04:28:19;;;;;;;157.10;60.60;;;;;;;;;;5118052;27;20031;-62
2021/11/25 04:35:56;;;;;;;158.32;63.10;;;;;;;;;;5103005;27;20051;-62
2021/11/25 04:38:22;;;;;;;150.23;61.92;;;;;;;;;;5086074;27;20063;-62
2021/11/25 04:40:50;;;;;;;161.13;64.38;;;;;;;;;;5117126;27;20035;-62
2021/11/25 04:43:17;;;;;;;158.10;62.97;;;;;;;;;;5105881;27;20507;-62
2021/11/25 04:45:44;;;;;;;163.63;62.90;;;;;;;;;;5105948;27;20044;-62
2021/11/25 04:48:10;;;;;;;153.60;62.40;;;;;;;;;;5103214;27;20067;-62
2021/11/25 04:50:36;;;;;;;148.77;62.25;;;;;;;;;;5113750;27;20141;-62
2021/11/25 04:53:03;;;;;;;161.43;65.00;;;;;;;;;;5091637;28;20047;-62
2021/11/25 04:55:30;;;;;;;156.00;65.53;;;;;;;;;;5088551;28;20054;-62
2021/11/25 04:57:56;;;;;;;161.48;62.47;;;;;;;;;;5106431;27;20035;-62
2021/11/25 05:00:22;;;;;;;161.00;67.28;;;;;;;;;;5100180;28;20043;-62
2021/11/25 05:02:48;;;;;;;154.55;62.97;;;;;;;;;;5109871;27;20044;-62
2021/11/25 05:05:14;;;;;;;161.07;64.10;;;;;;;;;;5098652;28;20040;-62
2021/11/25 05:07:41;;;;;;;169.20;65.05;;;;;;;;;;5117208;27;20387;-63
2021/11/25 05:10:08;;;;;;;173.45;66.63;;;;;;;;;;5090230;28;20490;-62
2021/11/25 05:12:36;;;;;;;168.80;65.30;;;;;;;;;;5116540;27;20116;-62
2021/11/25 05:15:03;;;;;;;173.80;66.07;;;;;;;;;;5107501;28;20047;-63
2021/11/25 05:17:29;;;;;;;185.93;66.47;;;;;;;;;;5107443;28;20090;-62
2021/11/25 05:19:55;;;;;;;170.23;65.22;;;;;;;;;;5112864;27;20042;-62
2021/11/25 05:22:21;;;;;;;171.82;65.10;;;;;;;;;;5123179;27;20127;-62
2021/11/25 05:24:48;;;;;;;173.38;63.83;;;;;;;;;;5110722;27;20081;-62
2021/11/25 05:27:14;;;;;;;177.25;66.53;;;;;;;;;;5087627;27;20444;-62
2021/11/25 05:29:40;;;;;;;184.50;67.07;;;;;;;;;;5114030;27;20067;-62
2021/11/25 05:32:07;;;;;;;168.95;66.55;;;;;;;;;;5121603;27;20062;-62
2021/11/25 05:34:33;;;;;;;186.95;66.43;;;;;;;;;;5119126;27;20074;-62
2021/11/25 05:36:59;;;;;;;190.88;68.55;;;;;;;;;;5122227;27;20035;-62
2021/11/25 05:39:25;;;;;;;193.65;67.85;;;;;;;;;;5104181;27;20067;-62
2021/11/25 05:41:51;;;;;;;194.82;69.28;;;;;;;;;;5118557;27;20374;-62
2021/11/25 05:44:18;;;;;;;191.18;69.20;;;;;;;;;;5115980;27;20050;-62
2021/11/25 05:46:44;;;;;;;182.95;69.40;;;;;;;;;;5130812;27;20035;-63
2021/11/25 05:49:10;;;;;;;185.90;67.38;;;;;;;;;;5115842;27;20119;-63
2021/11/25 05:51:36;;;;;;;199.32;69.20;;;;;;;;;;5119078;27;20071;-62
2021/11/25 05:54:02;;;;;;;199.73;69.45;;;;;;;;;;5098644;28;20035;-65
2021/11/25 05:56:29;;;;;;;202.70;70.22;;;;;;;;;;5111565;27;20083;-62
2021/11/25 05:58:56;;;;;;;208.82;70.15;;;;;;;;;;5120951;27;20039;-63
2021/11/25 06:01:24;;;;;;;215.30;71.82;;;;;;;;;;5114988;27;20123;-62
2021/11/25 06:03:52;;;;;;;217.18;71.72;;;;;;;;;;5096352;27;20103;-62
2021/11/25 06:06:18;;;;;;;208.02;73.53;;;;;;;;;;5115326;27;20415;-63
2021/11/25 06:08:44;;;;;;;218.20;74.03;;;;;;;;;;5118864;27;20411;-62
2021/11/25 06:11:10;;;;;;;239.65;76.32;;;;;;;;;;5094342;27;20142;-62
2021/11/25 06:13:36;;;;;;;243.95;75.50;;;;;;;;;;5111451;27;20047;-62
2021/11/25 06:16:03;;;;;;;240.82;75.50;;;;;;;;;;5099350;27;20090;-62
2021/11/25 06:18:29;;;;;;;243.02;74.63;;;;;;;;;;5115385;27;20144;-62
2021/11/25 06:20:55;;;;;;;252.50;75.60;;;;;;;;;;5112914;27;20051;-63
2021/11/25 06:23:21;;;;;;;238.30;75.20;;;;;;;;;;5117480;27;20065;-63
2021/11/25 06:25:48;;;;;;;248.02;74.85;;;;;;;;;;5115127;27;20043;-63
2021/11/25 06:28:14;;;;;;;263.23;76.50;;;;;;;;;;5114921;27;20032;-62
2021/11/25 06:30:40;;;;;;;249.60;75.50;;;;;;;;;;5118825;27;20320;-62
2021/11/25 06:33:06;;;;;;;257.85;75.00;;;;;;;;;;5112639;27;20089;-63
2021/11/25 06:35:33;;;;;;;286.45;77.15;;;;;;;;;;5112348;27;20036;-62
2021/11/25 06:37:59;;;;;;;280.83;78.95;;;;;;;;;;5092546;28;20052;-63
2021/11/25 06:40:26;;;;;;;260.10;75.57;;;;;;;;;;5113153;28;20541;-63
2021/11/25 06:42:55;;;;;;;272.42;77.38;;;;;;;;;;5112548;28;20536;-63
2021/11/25 06:45:21;;;;;;;290.00;78.53;;;;;;;;;;5095215;28;20122;-63
2021/11/25 06:47:48;;;;;;;306.05;78.07;;;;;;;;;;5113537;28;20067;-62
2021/11/25 06:50:15;;;;;;;287.35;78.47;;;;;;;;;;5094694;28;20089;-62
2021/11/25 06:52:41;;;;;;;279.77;76.15;;;;;;;;;;5113417;28;20050;-62
2021/11/25 06:55:08;;;;;;;288.13;77.55;;;;;;;;;;5111852;28;20041;-63
2021/11/25 06:57:34;;;;;;;264.20;76.30;;;;;;;;;;5113437;28;20221;-62
2021/11/25 07:00:03;;;;;;;251.50;76.43;;;;;;;;;;5109628;28;20032;-62
2021/11/25 07:02:29;;;;;;;261.73;76.53;;;;;;;;;;5112431;28;20047;-63
2021/11/25 07:04:57;;;;;;;257.15;76.47;;;;;;;;;;5112927;28;20141;-63
2021/11/25 07:07:23;;;;;;;278.33;76.63;;;;;;;;;;5113460;28;20048;-62
2021/11/25 07:09:49;;;;;;;284.58;78.03;;;;;;;;;;5111815;28;20051;-62
2021/11/25 07:12:15;;;;;;;298.95;78.15;;;;;;;;;;5094382;28;20043;-62
2021/11/25 07:14:41;;;;;;;263.65;74.70;;;;;;;;;;5112693;28;20054;-62
2021/11/25 07:17:08;;;;;;;267.40;74.20;;;;;;;;;;5111711;28;20115;-63
2021/11/25 07:19:34;;;;;;;266.88;75.70;;;;;;;;;;5094622;28;20475;-62
2021/11/25 07:22:00;;;;;;;259.35;72.55;;;;;;;;;;5113153;28;20047;-62
2021/11/25 07:24:26;;;;;;;271.10;75.07;;;;;;;;;;5111619;28;20226;-63
2021/11/25 07:26:52;;;;;;;270.35;74.43;;;;;;;;;;5112872;28;20048;-62
2021/11/25 07:29:19;;;;;;;317.65;80.18;;;;;;;;;;5093076;28;20039;-64
2021/11/25 07:31:46;;;;;;;275.00;76.65;;;;;;;;;;5112108;28;20043;-63
2021/11/25 07:34:13;;;;;;;291.45;77.78;;;;;;;;;;5113074;28;20439;-63
2021/11/25 07:36:39;;;;;;;301.40;75.60;;;;;;;;;;5094267;28;20468;-63
2021/11/25 07:39:05;;;;;;;156.27;53.00;;;;;;;;;;5111717;28;20036;-63
2021/11/25 07:41:31;;;;;;;175.45;56.50;;;;;;;;;;5109074;28;20035;-63
2021/11/25 07:43:58;;;;;;;158.82;55.88;;;;;;;;;;5112152;28;20074;-64
2021/11/25 07:46:24;;;;;;;145.27;52.50;;;;;;;;;;5110964;28;20483;-64
2021/11/25 07:48:51;;;;;;;170.32;52.45;;;;;;;;;;5093724;28;20117;-64
2021/11/25 07:51:17;;;;;;;168.18;53.17;;;;;;;;;;5088759;28;20036;-64
2021/11/25 07:53:43;;;;;;;149.18;48.05;;;;;;;;;;5082849;28;20156;-64
2021/11/25 07:56:09;;;;;;;157.02;49.40;;;;;;;;;;5083047;28;20557;-64
2021/11/25 07:58:35;;;;;;;160.90;49.38;;;;;;;;;;5102339;28;20115;-64
2021/11/25 08:01:02;;;;;;;153.32;50.17;;;;;;;;;;5102081;28;20040;-64
2021/11/25 08:03:28;;;;;;;148.20;49.22;;;;;;;;;;5102945;28;20455;-64
2021/11/25 08:05:54;;;;;;;176.95;50.15;;;;;;;;;;5084417;28;20047;-64
2021/11/25 08:08:20;;;;;;;171.30;49.03;;;;;;;;;;5109172;28;20088;-64
2021/11/25 08:10:47;;;;;;;177.27;51.47;;;;;;;;;;5109654;28;20052;-64
2021/11/25 08:13:13;;;;;;;161.40;50.55;;;;;;;;;;5109595;28;20057;-64
2021/11/25 08:15:39;;;;;;;190.23;53.42;;;;;;;;;;5111714;28;20048;-64
2021/11/25 08:18:06;;;;;;;172.65;48.95;;;;;;;;;;5092909;28;20402;-64
2021/11/25 08:20:32;;;;;;;141.82;46.08;;;;;;;;;;5088547;28;20044;-64
2021/11/25 08:22:58;;;;;;;122.78;42.28;;;;;;;;;;5111518;28;20036;-65
2021/11/25 08:25:25;;;;;;;155.15;44.65;;;;;;;;;;5111280;28;20376;-63
2021/11/25 08:27:55;;;;;;;129.50;42.20;;;;;;;;;;5092419;28;20043;-63
2021/11/25 08:30:22;;;;;;;116.40;35.88;;;;;;;;;;5110049;28;20349;-63
2021/11/25 08:32:48;;;;;;;121.50;38.08;;;;;;;;;;5111480;28;20050;-63
2021/11/25 08:35:15;;;;;;;102.63;33.15;;;;;;;;;;5110402;28;20050;-63
2021/11/25 08:37:42;;;;;;;85.45;27.60;;;;;;;;;;5111521;28;20059;-63
2021/11/25 08:40:09;;;;;;;99.60;30.00;;;;;;;;;;5111657;28;20597;-64
2021/11/25 08:42:36;;;;;;;64.22;22.85;;;;;;;;;;5091414;28;20411;-64
2021/11/25 08:45:03;;;;;;;70.70;22.77;;;;;;;;;;5110604;28;20046;-63
2021/11/25 08:47:29;;;;;;;57.53;18.23;;;;;;;;;;5110274;28;20078;-63
2021/11/25 08:49:55;;;;;;;35.08;13.27;;;;;;;;;;5112063;28;20043;-63
2021/11/25 08:52:21;;;;;;;35.88;13.50;;;;;;;;;;5093945;28;20051;-63
2021/11/25 08:54:47;;;;;;;29.88;9.02;;;;;;;;;;5110807;28;20039;-63
2021/11/25 08:57:13;;;;;;;22.30;6.68;;;;;;;;;;5090436;28;20054;-63
2021/11/25 08:59:40;;;;;;;24.00;5.90;;;;;;;;;;5110954;28;20090;-64
2021/11/25 09:02:06;;;;;;;16.60;2.92;;;;;;;;;;5109687;28;20475;-63
2021/11/25 09:04:32;;;;;;;30.38;3.65;;;;;;;;;;5111468;28;20089;-64
2021/11/25 09:06:59;;;;;;;12.75;2.05;;;;;;;;;;5112097;28;20044;-63
2021/11/25 09:09:25;;;;;;;18.33;1.67;;;;;;;;;;5110658;28;20051;-63
2021/11/25 09:11:51;;;;;;;18.10;2.00;;;;;;;;;;5110338;28;20118;-63
2021/11/25 09:14:18;;;;;;;14.95;2.42;;;;;;;;;;5111134;28;20123;-70
2021/11/25 09:16:44;;;;;;;12.40;1.95;;;;;;;;;;5092553;28;20039;-64
2021/11/25 09:19:10;;;;;;;17.60;2.28;;;;;;;;;;5111991;28;20403;-63
2021/11/25 09:21:36;;;;;;;13.00;1.70;;;;;;;;;;5110698;28;20498;-64
2021/11/25 09:24:04;;;;;;;15.00;2.63;;;;;;;;;;5090957;28;20040;-63
2021/11/25 09:26:31;;;;;;;12.43;2.13;;;;;;;;;;5092264;28;20044;-64
2021/11/25 09:28:58;;;;;;;25.58;2.65;;;;;;;;;;5110974;28;20067;-64
2021/11/25 09:31:29;;;;;;;11.70;1.77;;;;;;;;;;5110403;28;20093;-64
2021/11/25 09:33:55;;;;;;;22.20;4.00;;;;;;;;;;5110756;28;20044;-64
2021/11/25 09:36:22;;;;;;;15.77;2.28;;;;;;;;;;5110939;28;20039;-64
2021/11/25 09:38:49;;;;;;;18.02;2.08;;;;;;;;;;5109956;28;20039;-63
2021/11/25 09:41:15;;;;;;;17.80;2.00;;;;;;;;;;5104642;28;20165;-64
2021/11/25 09:43:41;;;;;;;10.43;1.35;;;;;;;;;;5110883;28;20039;-64
2021/11/25 09:46:08;;;;;;;15.48;1.83;;;;;;;;;;5109982;28;20122;-64
2021/11/25 09:48:35;;;;;;;10.30;1.50;;;;;;;;;;5111108;28;20058;-63
2021/11/25 09:51:01;;;;;;;19.63;3.03;;;;;;;;;;5109602;28;20039;-64
2021/11/25 09:53:28;;;;;;;13.48;1.35;;;;;;;;;;5110556;28;20119;-64
2021/11/25 09:55:55;;;;;;;10.82;1.33;;;;;;;;;;5109781;28;20080;-64
2021/11/25 09:58:22;;;;;;;11.75;2.03;;;;;;;;;;5110106;28;20044;-64
2021/11/25 10:00:51;;;;;;;14.25;1.90;;;;;;;;;;5110012;28;20055;-63
2021/11/25 10:03:18;;;;;;;16.55;2.08;;;;;;;;;;5110619;28;20046;-64
2021/11/25 10:05:45;;;;;;;12.70;2.30;;;;;;;;;;5092377;28;20056;-64
2021/11/25 10:08:36;;;;;;;14.93;2.03;;;;;;;;;;5114160;28;20126;-64
2021/11/25 10:11:08;;;;;;;10.25;1.63;;;;;;;;;;5115408;28;20108;-64
2021/11/25 10:13:39;;;;;;;10.05;1.42;;;;;;;;;;5095998;28;20471;-64
2021/11/25 10:16:08;;;;;;;10.30;1.75;;;;;;;;;;5093387;28;20075;-64
2021/11/25 10:18:36;;;;;;;14.00;1.92;;;;;;;;;;5113829;28;20384;-64
2021/11/25 10:21:04;;;;;;;15.98;1.98;;;;;;;;;;5096179;28;20490;-64
2021/11/25 10:23:30;;;;;;;17.83;2.03;;;;;;;;;;5114739;28;20513;-64
2021/11/25 10:25:56;;;;;;;20.38;2.53;;;;;;;;;;5095845;28;20048;-64
2021/11/25 10:28:40;;;;;;;14.65;2.22;;;;;;;;;;5114789;28;20043;-64
2021/11/25 10:31:07;;;;;;;;;;;;;;;;;;5115220;28;20471;-64
2021/11/25 10:33:37;;;;;;;18.45;2.42;;;;;;;;;;5095597;28;20014;-64
2021/11/25 10:38:39;;;;;;;11.43;1.80;;;;;;;;;;5113839;28;20051;-64
2021/11/25 10:41:12;;;;;;;18.38;2.35;;;;;;;;;;5092634;28;20127;-64
2021/11/25 10:43:38;;;;;;;;;;;;;;;;;;5114074;28;20445;-64
2021/11/25 10:46:06;;;;;;;15.13;2.30;;;;;;;;;;5113943;28;20003;-63
2021/11/25 10:48:35;;;;;;;15.23;2.05;;;;;;;;;;5094598;28;20393;-63
2021/11/25 10:51:21;;;;;;;15.75;2.08;;;;;;;;;;5113578;28;20035;-63
2021/11/25 10:54:03;;;;;;;10.98;2.33;;;;;;;;;;5095213;28;20044;-63
2021/11/25 10:56:35;;;;;;;13.25;2.20;;;;;;;;;;5094783;28;20054;-63
2021/11/25 10:59:01;;;;;;;10.32;1.90;;;;;;;;;;5113957;28;20039;-63
2021/11/25 11:01:38;;;;;;;8.80;1.50;;;;;;;;;;5112701;28;20039;-63
2021/11/25 11:04:04;;;;;;;12.82;1.95;;;;;;;;;;5109830;28;20043;-64
2021/11/25 11:06:31;;;;;;;19.23;2.97;;;;;;;;;;5113208;28;20048;-63
2021/11/25 11:08:58;;;;;;;15.05;3.17;;;;;;;;;;5093939;28;20096;-64
2021/11/25 11:11:24;;;;;;;10.75;1.80;;;;;;;;;;5110534;28;20225;-64
2021/11/25 11:14:19;;;;;;;10.48;1.83;;;;;;;;;;5080846;28;20040;-64
2021/11/25 11:19:12;;;;;;;17.23;1.77;;;;;;;;;;5083026;28;20088;-64
2021/11/25 11:21:48;;;;;;;21.35;2.25;;;;;;;;;;5109064;28;20060;-64
2021/11/25 11:24:15;;;;;;;15.23;1.63;;;;;;;;;;5096413;28;20396;-64
2021/11/25 11:26:43;;;;;;;11.13;1.70;;;;;;;;;;5105215;28;20031;-64
2021/11/25 11:29:10;;;;;;;9.43;1.83;;;;;;;;;;5103417;28;20063;-64
2021/11/25 11:31:37;;;;;;;7.57;1.90;;;;;;;;;;5082513;28;20500;-64
2021/11/25 11:34:05;;;;;;;11.75;1.67;;;;;;;;;;5109353;28;20046;-64
2021/11/25 11:36:32;;;;;;;12.80;2.60;;;;;;;;;;5099330;28;20492;-64
2021/11/25 11:39:00;;;;;;;10.82;2.38;;;;;;;;;;5100710;28;20077;-64
2021/11/25 11:41:30;;;;;;;14.60;1.85;;;;;;;;;;5106541;28;20111;-64
2021/11/25 11:43:57;;;;;;;9.23;1.63;;;;;;;;;;5098529;28;20061;-64
2021/11/25 11:46:24;;;;;;;9.60;1.98;;;;;;;;;;5102764;28;20053;-64
2021/11/25 11:48:52;;;;;;;17.45;2.55;;;;;;;;;;5104341;28;20040;-64
2021/11/25 11:51:19;;;;;;;8.40;1.70;;;;;;;;;;5097817;28;20040;-64
2021/11/25 11:53:45;;;;;;;12.85;1.67;;;;;;;;;;5102422;28;20093;-64
2021/11/25 11:56:13;;;;;;;8.45;1.38;;;;;;;;;;5108960;28;20090;-64
2021/11/25 11:58:40;;;;;;;11.85;1.20;;;;;;;;;;5111276;28;20133;-64
2021/11/25 12:01:19;;;;;;;11.38;1.63;;;;;;;;;;5112245;28;20048;-64
2021/11/25 12:03:46;;;;;;;13.10;2.00;;;;;;;;;;5112400;28;20039;-64
2021/11/25 12:06:29;;;;;;;13.23;1.98;;;;;;;;;;5108733;28;20043;-64
2021/11/25 12:08:55;;;;;;;10.32;1.33;;;;;;;;;;5111479;28;20047;-64
2021/11/25 12:11:21;;;;;;;14.88;2.67;;;;;;;;;;5093680;28;20051;-64
2021/11/25 12:13:56;;;;;;;7.85;1.42;;;;;;;;;;5111372;28;20046;-64
2021/11/25 12:16:25;;;;;;;19.48;2.92;;;;;;;;;;5112050;28;20127;-64
2021/11/25 12:18:54;;;;;;;8.75;1.55;;;;;;;;;;5110989;28;20044;-64
2021/11/25 12:21:31;;;;;;;8.82;1.75;;;;;;;;;;5111924;28;20043;-64
2021/11/25 12:24:12;;;;;;;13.05;1.75;;;;;;;;;;5106711;28;20042;-64
2021/11/25 12:26:57;;;;;;;12.02;1.73;;;;;;;;;;5110892;28;20075;-64
2021/11/25 12:29:41;;;;;;;13.13;1.70;;;;;;;;;;5110828;28;20092;-64
2021/11/25 12:32:26;;;;;;;9.88;1.40;;;;;;;;;;5111413;28;20180;-64
2021/11/25 12:34:54;;;;;;;11.63;2.25;;;;;;;;;;5110985;28;20465;-64
2021/11/25 12:37:39;;;;;;;11.82;1.70;;;;;;;;;;5111668;28;20127;-64
2021/11/25 12:40:05;;;;;;;11.80;2.72;;;;;;;;;;5109971;28;20049;-64
2021/11/25 12:42:31;;;;;;;10.05;2.00;;;;;;;;;;5106661;28;20058;-64
2021/11/25 12:44:57;;;;;;;15.20;2.70;;;;;;;;;;5112006;28;20136;-77
2021/11/25 12:47:23;;;;;;;13.23;1.73;;;;;;;;;;5109879;28;20044;-66
2021/11/25 12:49:51;;;;;;;8.82;1.42;;;;;;;;;;5111513;28;21406;-66
2021/11/25 12:52:27;;;;;;;8.70;1.92;;;;;;;;;;5111321;28;20529;-66
2021/11/25 12:55:05;;;;;;;10.93;2.17;;;;;;;;;;5110637;28;20044;-66
2021/11/25 12:57:50;;;;;;;16.23;2.72;;;;;;;;;;5111286;28;20126;-66
2021/11/25 13:00:17;;;;;;;14.02;3.05;;;;;;;;;;5107636;28;20031;-68
2021/11/25 13:02:44;;;;;;;13.02;2.75;;;;;;;;;;5092173;28;20135;-64
2021/11/25 13:05:10;;;;;;;13.23;2.42;;;;;;;;;;5111063;28;20058;-66
2021/11/25 13:07:48;;;;;;;14.25;2.25;;;;;;;;;;5110464;28;20098;-65
2021/11/25 13:10:22;;;;;;;11.70;1.83;;;;;;;;;;5090694;28;20415;-64
2021/11/25 13:12:48;;;;;;;;;;;;;;;;;;5111510;28;20125;-63
2021/11/25 13:15:15;;;;;;;13.30;2.75;;;;;;;;;;5110002;28;20050;-74
2021/11/25 13:17:54;;;;;;;15.23;2.55;;;;;;;;;;5075452;28;20491;-62
2021/11/25 13:20:40;;;;;;;12.63;2.40;;;;;;;;;;5109895;28;20047;-67
2021/11/25 13:23:06;;;;;;;17.80;2.40;;;;;;;;;;5091882;28;20081;-66
2021/11/25 13:25:32;;;;;;;12.60;2.80;;;;;;;;;;5110568;28;20059;-66
2021/11/25 13:27:58;;;;;;;13.43;2.38;;;;;;;;;;5104809;28;20172;-63
2021/11/25 13:30:25;;;;;;;14.07;2.17;;;;;;;;;;5103236;28;20047;-63
2021/11/25 13:32:52;;;;;;;16.70;2.30;;;;;;;;;;5106397;28;20036;-63
2021/11/25 13:35:19;;;;;;;11.27;2.80;;;;;;;;;;5102142;28;20083;-63
2021/11/25 13:37:50;;;;;;;11.57;2.60;;;;;;;;;;5082487;28;20044;-64
2021/11/25 13:40:18;;;;;;;13.52;2.22;;;;;;;;;;5108787;27;20051;-64
2021/11/25 13:42:45;;;;;;;15.68;2.35;;;;;;;;;;5110617;27;20058;-64
2021/11/25 13:45:19;;;;;;;15.05;3.10;;;;;;;;;;5106520;27;20036;-64
2021/11/25 13:47:45;;;;;;;13.38;2.65;;;;;;;;;;5105210;28;20139;-64
2021/11/25 13:50:13;;;;;;;16.98;3.85;;;;;;;;;;5090294;28;20043;-61
2021/11/25 13:52:40;;;;;;;15.95;2.55;;;;;;;;;;5093528;27;20051;-62
2021/11/25 13:55:09;;;;;;;11.60;2.67;;;;;;;;;;5114122;27;20538;-62
2021/11/25 13:57:38;;;;;;;16.13;2.97;;;;;;;;;;5111484;27;20126;-62
2021/11/25 14:00:10;;;;;;;21.45;3.08;;;;;;;;;;5092269;28;20119;-62
2021/11/25 14:02:36;;;;;;;18.90;2.72;;;;;;;;;;5110955;28;20062;-62
2021/11/25 14:05:04;;;;;;;14.00;2.58;;;;;;;;;;5106934;28;20039;-62
2021/11/25 14:07:31;;;;;;;17.60;3.05;;;;;;;;;;5090478;28;20127;-62
2021/11/25 14:10:01;;;;;;;16.63;2.15;;;;;;;;;;5090633;28;20048;-62
2021/11/25 14:12:28;;;;;;;16.17;2.88;;;;;;;;;;5105253;28;20055;-62
2021/11/25 14:14:55;;;;;;;17.42;2.58;;;;;;;;;;5110920;28;20051;-62
2021/11/25 14:17:23;;;;;;;13.50;2.35;;;;;;;;;;5088219;28;20086;-62
2021/11/25 14:19:51;;;;;;;16.00;2.17;;;;;;;;;;5108868;28;20119;-62
2021/11/25 14:22:20;;;;;;;12.23;2.17;;;;;;;;;;5107435;28;20611;-62
2021/11/25 14:24:47;;;;;;;14.05;1.98;;;;;;;;;;5111108;27;20036;-63
2021/11/25 14:32:30;;;;;;;6.82;1.30;;;;;;;;;;5111463;27;20039;-62
2021/11/25 14:34:57;;;;;;;5.53;0.70;;;;;;;;;;5110764;27;20043;-62